sensor_id;sensor_type;location;lat;lon;timestamp;P1;durP1;ratioP1;P2;durP2;ratioP2
67839;SDS011;54636;51.684;5.142;2023-03-01T00:00:10;7.28;;;6.57;;
67839;SDS011;54636;51.684;5.142;2023-03-01T00:02:36;7.40;;;6.53;;
67839;SDS011;54636;51.684;5.142;2023-03-01T00:05:02;7.60;;;6.75;;
67839;SDS011;54636;51.684;5.142;2023-03-01T00:07:28;8.15;;;6.93;;
67839;SDS011;54636;51.684;5.142;2023-03-01T00:09:53;9.65;;;6.47;;
67839;SDS011;54636;51.684;5.142;2023-03-01T00:12:19;7.57;;;6.75;;
67839;SDS011;54636;51.684;5.142;2023-03-01T00:14:45;6.55;;;5.88;;
67839;SDS011;54636;51.684;5.142;2023-03-01T00:17:10;9.95;;;5.93;;
67839;SDS011;54636;51.684;5.142;2023-03-01T00:19:35;8.27;;;6.55;;
67839;SDS011;54636;51.684;5.142;2023-03-01T00:22:01;8.48;;;6.50;;
67839;SDS011;54636;51.684;5.142;2023-03-01T00:24:26;7.40;;;6.70;;
67839;SDS011;54636;51.684;5.142;2023-03-01T00:26:53;7.28;;;6.38;;
67839;SDS011;54636;51.684;5.142;2023-03-01T00:29:20;8.75;;;7.43;;
67839;SDS011;54636;51.684;5.142;2023-03-01T00:31:46;8.27;;;6.15;;
67839;SDS011;54636;51.684;5.142;2023-03-01T00:34:11;7.25;;;6.63;;
67839;SDS011;54636;51.684;5.142;2023-03-01T00:36:37;9.45;;;7.10;;
67839;SDS011;54636;51.684;5.142;2023-03-01T00:39:03;9.10;;;6.55;;
67839;SDS011;54636;51.684;5.142;2023-03-01T00:41:32;10.98;;;6.65;;
67839;SDS011;54636;51.684;5.142;2023-03-01T00:43:59;12.50;;;7.03;;
67839;SDS011;54636;51.684;5.142;2023-03-01T00:46:25;9.73;;;6.28;;
67839;SDS011;54636;51.684;5.142;2023-03-01T00:48:51;13.43;;;6.57;;
67839;SDS011;54636;51.684;5.142;2023-03-01T00:51:19;8.13;;;6.30;;
67839;SDS011;54636;51.684;5.142;2023-03-01T00:53:49;6.63;;;6.03;;
67839;SDS011;54636;51.684;5.142;2023-03-01T00:56:15;6.65;;;6.05;;
67839;SDS011;54636;51.684;5.142;2023-03-01T00:58:41;7.25;;;6.53;;
67839;SDS011;54636;51.684;5.142;2023-03-01T01:01:10;7.65;;;6.95;;
67839;SDS011;54636;51.684;5.142;2023-03-01T01:03:52;7.72;;;6.78;;
67839;SDS011;54636;51.684;5.142;2023-03-01T01:06:21;7.70;;;6.90;;
67839;SDS011;54636;51.684;5.142;2023-03-01T01:08:51;7.63;;;6.80;;
67839;SDS011;54636;51.684;5.142;2023-03-01T01:11:17;8.32;;;6.50;;
67839;SDS011;54636;51.684;5.142;2023-03-01T01:13:44;10.63;;;7.70;;
67839;SDS011;54636;51.684;5.142;2023-03-01T01:16:11;8.07;;;6.88;;
67839;SDS011;54636;51.684;5.142;2023-03-01T01:18:37;9.18;;;7.00;;
67839;SDS011;54636;51.684;5.142;2023-03-01T01:21:06;8.73;;;6.55;;
67839;SDS011;54636;51.684;5.142;2023-03-01T01:23:34;9.10;;;6.70;;
67839;SDS011;54636;51.684;5.142;2023-03-01T01:26:07;12.25;;;7.90;;
67839;SDS011;54636;51.684;5.142;2023-03-01T01:28:33;7.93;;;7.13;;
67839;SDS011;54636;51.684;5.142;2023-03-01T01:30:59;9.27;;;7.05;;
67839;SDS011;54636;51.684;5.142;2023-03-01T01:33:25;10.10;;;7.63;;
67839;SDS011;54636;51.684;5.142;2023-03-01T01:35:51;9.00;;;6.80;;
67839;SDS011;54636;51.684;5.142;2023-03-01T01:38:16;8.15;;;7.38;;
67839;SDS011;54636;51.684;5.142;2023-03-01T01:40:45;8.55;;;7.63;;
67839;SDS011;54636;51.684;5.142;2023-03-01T01:43:19;7.63;;;7.00;;
67839;SDS011;54636;51.684;5.142;2023-03-01T01:45:55;8.63;;;7.63;;
67839;SDS011;54636;51.684;5.142;2023-03-01T01:48:28;11.38;;;8.65;;
67839;SDS011;54636;51.684;5.142;2023-03-01T01:51:19;10.25;;;7.68;;
67839;SDS011;54636;51.684;5.142;2023-03-01T01:53:51;8.27;;;7.47;;
67839;SDS011;54636;51.684;5.142;2023-03-01T01:56:19;8.77;;;7.32;;
67839;SDS011;54636;51.684;5.142;2023-03-01T01:58:46;12.73;;;7.70;;
67839;SDS011;54636;51.684;5.142;2023-03-01T02:01:12;11.48;;;9.30;;
67839;SDS011;54636;51.684;5.142;2023-03-01T02:03:39;9.07;;;7.88;;
67839;SDS011;54636;51.684;5.142;2023-03-01T02:06:41;8.30;;;7.50;;
67839;SDS011;54636;51.684;5.142;2023-03-01T02:09:03;8.93;;;7.75;;
67839;SDS011;54636;51.684;5.142;2023-03-01T02:11:33;11.38;;;9.05;;
67839;SDS011;54636;51.684;5.142;2023-03-01T02:13:59;24.02;;;9.02;;
67839;SDS011;54636;51.684;5.142;2023-03-01T02:16:25;11.27;;;8.00;;
67839;SDS011;54636;51.684;5.142;2023-03-01T02:18:51;10.60;;;7.88;;
67839;SDS011;54636;51.684;5.142;2023-03-01T02:24:13;10.70;;;7.70;;
67839;SDS011;54636;51.684;5.142;2023-03-01T02:26:47;10.55;;;9.30;;
67839;SDS011;54636;51.684;5.142;2023-03-01T02:29:15;10.48;;;8.10;;
67839;SDS011;54636;51.684;5.142;2023-03-01T02:31:40;8.90;;;7.95;;
67839;SDS011;54636;51.684;5.142;2023-03-01T02:34:06;9.40;;;8.50;;
67839;SDS011;54636;51.684;5.142;2023-03-01T02:36:39;7.60;;;6.78;;
67839;SDS011;54636;51.684;5.142;2023-03-01T02:39:14;7.95;;;7.05;;
67839;SDS011;54636;51.684;5.142;2023-03-01T02:41:51;10.48;;;7.22;;
67839;SDS011;54636;51.684;5.142;2023-03-01T02:44:18;8.10;;;7.30;;
67839;SDS011;54636;51.684;5.142;2023-03-01T02:46:45;8.02;;;7.22;;
67839;SDS011;54636;51.684;5.142;2023-03-01T02:49:20;11.07;;;6.75;;
67839;SDS011;54636;51.684;5.142;2023-03-01T02:57:15;7.57;;;6.78;;
67839;SDS011;54636;51.684;5.142;2023-03-01T02:59:41;9.40;;;7.22;;
67839;SDS011;54636;51.684;5.142;2023-03-01T03:02:08;9.20;;;6.88;;
67839;SDS011;54636;51.684;5.142;2023-03-01T03:05:01;8.73;;;7.07;;
67839;SDS011;54636;51.684;5.142;2023-03-01T03:07:28;9.88;;;7.88;;
67839;SDS011;54636;51.684;5.142;2023-03-01T03:09:53;8.52;;;7.63;;
67839;SDS011;54636;51.684;5.142;2023-03-01T03:12:18;8.32;;;7.47;;
67839;SDS011;54636;51.684;5.142;2023-03-01T03:14:44;11.88;;;7.05;;
67839;SDS011;54636;51.684;5.142;2023-03-01T03:17:09;8.57;;;7.05;;
67839;SDS011;54636;51.684;5.142;2023-03-01T03:19:34;8.35;;;7.55;;
67839;SDS011;54636;51.684;5.142;2023-03-01T03:22:00;8.65;;;6.57;;
67839;SDS011;54636;51.684;5.142;2023-03-01T03:24:25;7.90;;;7.10;;
67839;SDS011;54636;51.684;5.142;2023-03-01T03:26:51;7.85;;;6.97;;
67839;SDS011;54636;51.684;5.142;2023-03-01T03:29:16;7.97;;;7.18;;
67839;SDS011;54636;51.684;5.142;2023-03-01T03:31:41;10.60;;;7.80;;
67839;SDS011;54636;51.684;5.142;2023-03-01T03:34:07;7.80;;;7.00;;
67839;SDS011;54636;51.684;5.142;2023-03-01T03:36:32;7.88;;;7.05;;
67839;SDS011;54636;51.684;5.142;2023-03-01T03:38:58;7.88;;;6.85;;
67839;SDS011;54636;51.684;5.142;2023-03-01T03:41:23;8.20;;;7.05;;
67839;SDS011;54636;51.684;5.142;2023-03-01T03:43:48;13.35;;;7.55;;
67839;SDS011;54636;51.684;5.142;2023-03-01T03:46:14;8.25;;;7.20;;
67839;SDS011;54636;51.684;5.142;2023-03-01T03:48:40;11.50;;;8.13;;
67839;SDS011;54636;51.684;5.142;2023-03-01T03:51:12;8.05;;;7.28;;
67839;SDS011;54636;51.684;5.142;2023-03-01T03:53:39;9.40;;;7.15;;
67839;SDS011;54636;51.684;5.142;2023-03-01T03:56:05;11.40;;;7.78;;
67839;SDS011;54636;51.684;5.142;2023-03-01T03:58:31;7.68;;;6.90;;
67839;SDS011;54636;51.684;5.142;2023-03-01T04:00:57;8.93;;;7.18;;
67839;SDS011;54636;51.684;5.142;2023-03-01T04:03:23;8.35;;;7.55;;
67839;SDS011;54636;51.684;5.142;2023-03-01T04:05:50;4.85;;;3.38;;
67839;SDS011;54636;51.684;5.142;2023-03-01T04:08:17;8.23;;;7.28;;
67839;SDS011;54636;51.684;5.142;2023-03-01T04:10:47;10.63;;;6.88;;
67839;SDS011;54636;51.684;5.142;2023-03-01T04:13:15;8.77;;;7.88;;
67839;SDS011;54636;51.684;5.142;2023-03-01T04:15:49;8.60;;;7.07;;
67839;SDS011;54636;51.684;5.142;2023-03-01T04:18:15;9.07;;;7.63;;
67839;SDS011;54636;51.684;5.142;2023-03-01T04:20:43;8.48;;;6.75;;
67839;SDS011;54636;51.684;5.142;2023-03-01T04:23:14;8.48;;;7.57;;
67839;SDS011;54636;51.684;5.142;2023-03-01T04:25:49;7.78;;;6.60;;
67839;SDS011;54636;51.684;5.142;2023-03-01T04:28:34;9.88;;;6.82;;
67839;SDS011;54636;51.684;5.142;2023-03-01T04:31:03;8.98;;;6.85;;
67839;SDS011;54636;51.684;5.142;2023-03-01T04:33:41;7.22;;;6.25;;
67839;SDS011;54636;51.684;5.142;2023-03-01T04:36:08;8.27;;;7.50;;
67839;SDS011;54636;51.684;5.142;2023-03-01T04:38:35;9.13;;;6.38;;
67839;SDS011;54636;51.684;5.142;2023-03-01T04:41:04;7.07;;;6.03;;
67839;SDS011;54636;51.684;5.142;2023-03-01T04:43:31;8.45;;;7.05;;
67839;SDS011;54636;51.684;5.142;2023-03-01T04:46:00;7.55;;;6.82;;
67839;SDS011;54636;51.684;5.142;2023-03-01T04:48:28;9.73;;;7.60;;
67839;SDS011;54636;51.684;5.142;2023-03-01T04:50:53;7.72;;;6.93;;
67839;SDS011;54636;51.684;5.142;2023-03-01T04:53:19;7.07;;;6.30;;
67839;SDS011;54636;51.684;5.142;2023-03-01T04:55:44;8.38;;;6.63;;
67839;SDS011;54636;51.684;5.142;2023-03-01T04:58:09;7.00;;;6.30;;
67839;SDS011;54636;51.684;5.142;2023-03-01T05:00:35;11.88;;;7.10;;
67839;SDS011;54636;51.684;5.142;2023-03-01T05:03:00;9.70;;;6.72;;
67839;SDS011;54636;51.684;5.142;2023-03-01T05:05:27;9.18;;;6.25;;
67839;SDS011;54636;51.684;5.142;2023-03-01T05:07:56;8.13;;;6.90;;
67839;SDS011;54636;51.684;5.142;2023-03-01T05:10:24;11.40;;;5.72;;
67839;SDS011;54636;51.684;5.142;2023-03-01T05:12:50;7.43;;;6.72;;
67839;SDS011;54636;51.684;5.142;2023-03-01T05:15:17;9.70;;;7.10;;
67839;SDS011;54636;51.684;5.142;2023-03-01T05:17:43;9.48;;;6.65;;
67839;SDS011;54636;51.684;5.142;2023-03-01T05:20:09;7.60;;;6.85;;
67839;SDS011;54636;51.684;5.142;2023-03-01T05:22:35;7.97;;;7.18;;
67839;SDS011;54636;51.684;5.142;2023-03-01T05:25:01;8.85;;;6.57;;
67839;SDS011;54636;51.684;5.142;2023-03-01T05:27:27;12.45;;;6.53;;
67839;SDS011;54636;51.684;5.142;2023-03-01T05:29:54;5.72;;;5.15;;
67839;SDS011;54636;51.684;5.142;2023-03-01T05:32:20;8.90;;;6.40;;
67839;SDS011;54636;51.684;5.142;2023-03-01T05:34:45;9.02;;;6.18;;
67839;SDS011;54636;51.684;5.142;2023-03-01T05:37:11;6.82;;;6.22;;
67839;SDS011;54636;51.684;5.142;2023-03-01T05:39:38;10.35;;;7.03;;
67839;SDS011;54636;51.684;5.142;2023-03-01T05:42:04;9.38;;;6.43;;
67839;SDS011;54636;51.684;5.142;2023-03-01T05:44:29;9.68;;;7.30;;
67839;SDS011;54636;51.684;5.142;2023-03-01T05:46:55;8.43;;;7.20;;
67839;SDS011;54636;51.684;5.142;2023-03-01T05:49:21;11.60;;;7.60;;
67839;SDS011;54636;51.684;5.142;2023-03-01T05:51:51;11.33;;;6.93;;
67839;SDS011;54636;51.684;5.142;2023-03-01T05:54:18;9.85;;;7.07;;
67839;SDS011;54636;51.684;5.142;2023-03-01T05:56:45;11.48;;;7.45;;
67839;SDS011;54636;51.684;5.142;2023-03-01T05:59:11;11.27;;;8.88;;
67839;SDS011;54636;51.684;5.142;2023-03-01T06:01:37;13.25;;;7.65;;
67839;SDS011;54636;51.684;5.142;2023-03-01T06:04:02;8.55;;;6.63;;
67839;SDS011;54636;51.684;5.142;2023-03-01T06:06:29;8.73;;;7.28;;
67839;SDS011;54636;51.684;5.142;2023-03-01T06:08:54;8.85;;;6.72;;
67839;SDS011;54636;51.684;5.142;2023-03-01T06:11:20;8.15;;;7.28;;
67839;SDS011;54636;51.684;5.142;2023-03-01T06:13:46;10.23;;;6.78;;
67839;SDS011;54636;51.684;5.142;2023-03-01T06:16:12;10.13;;;6.63;;
67839;SDS011;54636;51.684;5.142;2023-03-01T06:18:38;8.80;;;7.72;;
67839;SDS011;54636;51.684;5.142;2023-03-01T06:21:04;7.65;;;6.32;;
67839;SDS011;54636;51.684;5.142;2023-03-01T06:23:31;10.02;;;7.18;;
67839;SDS011;54636;51.684;5.142;2023-03-01T06:25:56;9.07;;;6.53;;
67839;SDS011;54636;51.684;5.142;2023-03-01T06:28:22;6.57;;;5.80;;
67839;SDS011;54636;51.684;5.142;2023-03-01T06:30:47;9.50;;;7.18;;
67839;SDS011;54636;51.684;5.142;2023-03-01T06:33:14;10.40;;;6.22;;
67839;SDS011;54636;51.684;5.142;2023-03-01T06:35:39;9.30;;;6.85;;
67839;SDS011;54636;51.684;5.142;2023-03-01T06:38:05;9.52;;;7.00;;
67839;SDS011;54636;51.684;5.142;2023-03-01T06:40:30;7.80;;;6.63;;
67839;SDS011;54636;51.684;5.142;2023-03-01T06:42:56;6.75;;;6.13;;
67839;SDS011;54636;51.684;5.142;2023-03-01T06:45:23;13.98;;;7.10;;
67839;SDS011;54636;51.684;5.142;2023-03-01T06:47:51;9.77;;;7.60;;
67839;SDS011;54636;51.684;5.142;2023-03-01T06:50:17;8.60;;;7.00;;
67839;SDS011;54636;51.684;5.142;2023-03-01T06:52:43;11.02;;;7.65;;
67839;SDS011;54636;51.684;5.142;2023-03-01T06:55:10;8.55;;;6.30;;
67839;SDS011;54636;51.684;5.142;2023-03-01T06:57:36;8.50;;;6.05;;
67839;SDS011;54636;51.684;5.142;2023-03-01T07:00:02;20.02;;;7.80;;
67839;SDS011;54636;51.684;5.142;2023-03-01T07:02:28;10.52;;;6.78;;
67839;SDS011;54636;51.684;5.142;2023-03-01T07:04:54;7.55;;;6.75;;
67839;SDS011;54636;51.684;5.142;2023-03-01T07:07:19;8.82;;;6.82;;
67839;SDS011;54636;51.684;5.142;2023-03-01T07:09:45;9.60;;;7.45;;
67839;SDS011;54636;51.684;5.142;2023-03-01T07:12:11;8.00;;;6.30;;
67839;SDS011;54636;51.684;5.142;2023-03-01T07:14:37;8.30;;;7.07;;
67839;SDS011;54636;51.684;5.142;2023-03-01T07:17:02;11.73;;;6.15;;
67839;SDS011;54636;51.684;5.142;2023-03-01T07:19:28;12.15;;;6.65;;
67839;SDS011;54636;51.684;5.142;2023-03-01T07:21:53;9.13;;;6.93;;
67839;SDS011;54636;51.684;5.142;2023-03-01T07:24:20;8.20;;;6.28;;
67839;SDS011;54636;51.684;5.142;2023-03-01T07:26:48;7.90;;;6.75;;
67839;SDS011;54636;51.684;5.142;2023-03-01T07:29:14;6.68;;;6.03;;
67839;SDS011;54636;51.684;5.142;2023-03-01T07:31:40;6.13;;;5.50;;
67839;SDS011;54636;51.684;5.142;2023-03-01T07:34:05;8.10;;;5.82;;
67839;SDS011;54636;51.684;5.142;2023-03-01T07:36:30;9.88;;;5.55;;
67839;SDS011;54636;51.684;5.142;2023-03-01T07:38:56;5.93;;;5.32;;
67839;SDS011;54636;51.684;5.142;2023-03-01T07:41:22;6.75;;;5.63;;
67839;SDS011;54636;51.684;5.142;2023-03-01T07:43:49;7.18;;;6.47;;
67839;SDS011;54636;51.684;5.142;2023-03-01T07:46:14;9.52;;;5.80;;
67839;SDS011;54636;51.684;5.142;2023-03-01T07:48:40;12.27;;;5.30;;
67839;SDS011;54636;51.684;5.142;2023-03-01T07:51:05;9.50;;;6.50;;
67839;SDS011;54636;51.684;5.142;2023-03-01T07:53:32;12.88;;;6.30;;
67839;SDS011;54636;51.684;5.142;2023-03-01T07:56:03;11.30;;;5.72;;
67839;SDS011;54636;51.684;5.142;2023-03-01T07:58:29;11.90;;;5.88;;
67839;SDS011;54636;51.684;5.142;2023-03-01T08:00:55;7.40;;;5.70;;
67839;SDS011;54636;51.684;5.142;2023-03-01T08:03:20;8.82;;;5.65;;
67839;SDS011;54636;51.684;5.142;2023-03-01T08:05:46;9.75;;;6.05;;
67839;SDS011;54636;51.684;5.142;2023-03-01T08:08:11;8.88;;;5.78;;
67839;SDS011;54636;51.684;5.142;2023-03-01T08:10:36;5.70;;;5.10;;
67839;SDS011;54636;51.684;5.142;2023-03-01T08:13:02;6.10;;;5.60;;
67839;SDS011;54636;51.684;5.142;2023-03-01T08:15:27;13.23;;;5.60;;
67839;SDS011;54636;51.684;5.142;2023-03-01T08:17:53;7.82;;;5.10;;
67839;SDS011;54636;51.684;5.142;2023-03-01T08:20:18;6.07;;;5.28;;
67839;SDS011;54636;51.684;5.142;2023-03-01T08:22:44;6.80;;;5.20;;
67839;SDS011;54636;51.684;5.142;2023-03-01T08:25:09;8.98;;;6.55;;
67839;SDS011;54636;51.684;5.142;2023-03-01T08:27:34;9.82;;;6.03;;
67839;SDS011;54636;51.684;5.142;2023-03-01T08:30:00;5.85;;;5.35;;
67839;SDS011;54636;51.684;5.142;2023-03-01T08:32:25;6.65;;;4.72;;
67839;SDS011;54636;51.684;5.142;2023-03-01T08:34:51;9.63;;;5.53;;
67839;SDS011;54636;51.684;5.142;2023-03-01T08:37:16;4.93;;;4.07;;
67839;SDS011;54636;51.684;5.142;2023-03-01T08:39:41;5.82;;;5.28;;
67839;SDS011;54636;51.684;5.142;2023-03-01T08:42:07;6.63;;;5.30;;
67839;SDS011;54636;51.684;5.142;2023-03-01T08:44:32;7.43;;;5.93;;
67839;SDS011;54636;51.684;5.142;2023-03-01T08:46:58;5.90;;;5.32;;
67839;SDS011;54636;51.684;5.142;2023-03-01T08:49:25;6.15;;;5.00;;
67839;SDS011;54636;51.684;5.142;2023-03-01T08:51:50;8.02;;;5.75;;
67839;SDS011;54636;51.684;5.142;2023-03-01T08:54:16;12.77;;;5.80;;
67839;SDS011;54636;51.684;5.142;2023-03-01T08:56:44;5.22;;;4.75;;
67839;SDS011;54636;51.684;5.142;2023-03-01T08:59:11;5.75;;;4.22;;
67839;SDS011;54636;51.684;5.142;2023-03-01T09:01:37;4.82;;;4.43;;
67839;SDS011;54636;51.684;5.142;2023-03-01T09:04:03;5.05;;;4.65;;
67839;SDS011;54636;51.684;5.142;2023-03-01T09:06:32;7.60;;;5.45;;
67839;SDS011;54636;51.684;5.142;2023-03-01T09:11:24;6.00;;;5.35;;
67839;SDS011;54636;51.684;5.142;2023-03-01T09:13:49;6.93;;;5.82;;
67839;SDS011;54636;51.684;5.142;2023-03-01T09:16:17;5.63;;;5.10;;
67839;SDS011;54636;51.684;5.142;2023-03-01T09:18:44;6.35;;;5.28;;
67839;SDS011;54636;51.684;5.142;2023-03-01T09:21:11;7.85;;;5.32;;
67839;SDS011;54636;51.684;5.142;2023-03-01T09:23:47;14.60;;;5.38;;
67839;SDS011;54636;51.684;5.142;2023-03-01T09:26:14;5.15;;;4.40;;
67839;SDS011;54636;51.684;5.142;2023-03-01T09:28:42;6.53;;;5.32;;
67839;SDS011;54636;51.684;5.142;2023-03-01T09:31:07;5.35;;;4.45;;
67839;SDS011;54636;51.684;5.142;2023-03-01T09:33:33;5.88;;;5.28;;
67839;SDS011;54636;51.684;5.142;2023-03-01T09:36:00;6.70;;;5.15;;
67839;SDS011;54636;51.684;5.142;2023-03-01T09:38:27;4.97;;;4.53;;
67839;SDS011;54636;51.684;5.142;2023-03-01T09:40:52;6.30;;;4.70;;
67839;SDS011;54636;51.684;5.142;2023-03-01T09:43:21;5.30;;;4.80;;
67839;SDS011;54636;51.684;5.142;2023-03-01T09:45:55;7.25;;;4.35;;
67839;SDS011;54636;51.684;5.142;2023-03-01T09:48:26;4.72;;;4.30;;
67839;SDS011;54636;51.684;5.142;2023-03-01T09:50:55;7.68;;;5.20;;
67839;SDS011;54636;51.684;5.142;2023-03-01T09:53:23;5.38;;;4.93;;
67839;SDS011;54636;51.684;5.142;2023-03-01T09:56:10;10.65;;;4.22;;
67839;SDS011;54636;51.684;5.142;2023-03-01T10:01:38;5.18;;;4.28;;
67839;SDS011;54636;51.684;5.142;2023-03-01T10:06:38;5.40;;;4.07;;
67839;SDS011;54636;51.684;5.142;2023-03-01T10:09:13;7.88;;;4.53;;
67839;SDS011;54636;51.684;5.142;2023-03-01T10:11:48;4.38;;;4.00;;
67839;SDS011;54636;51.684;5.142;2023-03-01T10:20:05;5.17;;;4.37;;
67839;SDS011;54636;51.684;5.142;2023-03-01T10:22:27;6.20;;;3.75;;
67839;SDS011;54636;51.684;5.142;2023-03-01T10:24:54;4.60;;;4.20;;
67839;SDS011;54636;51.684;5.142;2023-03-01T10:27:23;3.60;;;3.33;;
67839;SDS011;54636;51.684;5.142;2023-03-01T10:32:23;5.00;;;4.50;;
67839;SDS011;54636;51.684;5.142;2023-03-01T10:34:50;8.23;;;4.22;;
67839;SDS011;54636;51.684;5.142;2023-03-01T10:37:16;4.40;;;3.88;;
67839;SDS011;54636;51.684;5.142;2023-03-01T10:42:47;5.97;;;4.53;;
67839;SDS011;54636;51.684;5.142;2023-03-01T10:45:31;3.50;;;3.20;;
67839;SDS011;54636;51.684;5.142;2023-03-01T10:50:35;4.95;;;4.25;;
67839;SDS011;54636;51.684;5.142;2023-03-01T10:53:03;10.75;;;4.43;;
67839;SDS011;54636;51.684;5.142;2023-03-01T10:55:36;4.25;;;3.90;;
67839;SDS011;54636;51.684;5.142;2023-03-01T11:00:51;3.88;;;3.53;;
67839;SDS011;54636;51.684;5.142;2023-03-01T11:03:22;4.10;;;3.70;;
67839;SDS011;54636;51.684;5.142;2023-03-01T11:05:51;6.65;;;4.72;;
67839;SDS011;54636;51.684;5.142;2023-03-01T11:11:20;4.47;;;4.18;;
67839;SDS011;54636;51.684;5.142;2023-03-01T11:16:18;4.40;;;4.03;;
67839;SDS011;54636;51.684;5.142;2023-03-01T11:19:01;7.13;;;4.53;;
67839;SDS011;54636;51.684;5.142;2023-03-01T11:21:56;4.70;;;4.22;;
67839;SDS011;54636;51.684;5.142;2023-03-01T11:24:30;5.95;;;3.97;;
67839;SDS011;54636;51.684;5.142;2023-03-01T11:26:56;5.25;;;4.75;;
67839;SDS011;54636;51.684;5.142;2023-03-01T11:29:30;4.20;;;3.90;;
67839;SDS011;54636;51.684;5.142;2023-03-01T11:32:02;11.90;;;4.32;;
67839;SDS011;54636;51.684;5.142;2023-03-01T11:34:54;5.95;;;4.35;;
67839;SDS011;54636;51.684;5.142;2023-03-01T11:37:44;4.28;;;3.90;;
67839;SDS011;54636;51.684;5.142;2023-03-01T11:40:24;4.53;;;4.07;;
67839;SDS011;54636;51.684;5.142;2023-03-01T11:45:39;4.05;;;3.75;;
67839;SDS011;54636;51.684;5.142;2023-03-01T11:50:57;4.65;;;3.90;;
67839;SDS011;54636;51.684;5.142;2023-03-01T11:56:28;5.50;;;4.50;;
67839;SDS011;54636;51.684;5.142;2023-03-01T11:59:06;4.78;;;4.32;;
67839;SDS011;54636;51.684;5.142;2023-03-01T12:08:14;5.60;;;5.03;;
67839;SDS011;54636;51.684;5.142;2023-03-01T12:11:06;5.03;;;3.72;;
67839;SDS011;54636;51.684;5.142;2023-03-01T12:13:59;5.75;;;4.78;;
67839;SDS011;54636;51.684;5.142;2023-03-01T12:27:56;5.40;;;4.45;;
67839;SDS011;54636;51.684;5.142;2023-03-01T12:46:36;5.20;;;4.70;;
67839;SDS011;54636;51.684;5.142;2023-03-01T12:49:23;6.15;;;4.82;;
67839;SDS011;54636;51.684;5.142;2023-03-01T12:51:54;8.43;;;4.82;;
67839;SDS011;54636;51.684;5.142;2023-03-01T12:54:29;8.77;;;4.80;;
67839;SDS011;54636;51.684;5.142;2023-03-01T12:56:57;10.00;;;5.60;;
67839;SDS011;54636;51.684;5.142;2023-03-01T13:02:20;12.80;;;7.07;;
67839;SDS011;54636;51.684;5.142;2023-03-01T13:05:16;6.20;;;4.40;;
67839;SDS011;54636;51.684;5.142;2023-03-01T13:10:52;7.15;;;4.03;;
67839;SDS011;54636;51.684;5.142;2023-03-01T13:13:23;4.70;;;4.30;;
67839;SDS011;54636;51.684;5.142;2023-03-01T13:15:51;4.63;;;4.28;;
67839;SDS011;54636;51.684;5.142;2023-03-01T13:20:51;4.63;;;4.22;;
67839;SDS011;54636;51.684;5.142;2023-03-01T13:31:01;6.50;;;4.30;;
67839;SDS011;54636;51.684;5.142;2023-03-01T13:35:59;7.18;;;5.35;;
67839;SDS011;54636;51.684;5.142;2023-03-01T13:41:14;4.88;;;4.47;;
67839;SDS011;54636;51.684;5.142;2023-03-01T13:43:42;5.68;;;4.47;;
67839;SDS011;54636;51.684;5.142;2023-03-01T13:46:23;5.72;;;4.82;;
67839;SDS011;54636;51.684;5.142;2023-03-01T13:48:53;9.48;;;4.55;;
67839;SDS011;54636;51.684;5.142;2023-03-01T13:51:23;4.30;;;3.90;;
67839;SDS011;54636;51.684;5.142;2023-03-01T13:53:53;3.72;;;3.42;;
67839;SDS011;54636;51.684;5.142;2023-03-01T13:56:23;5.47;;;3.97;;
67839;SDS011;54636;51.684;5.142;2023-03-01T13:58:55;4.72;;;4.28;;
67839;SDS011;54636;51.684;5.142;2023-03-01T14:01:23;5.25;;;4.43;;
67839;SDS011;54636;51.684;5.142;2023-03-01T14:03:59;3.95;;;3.58;;
67839;SDS011;54636;51.684;5.142;2023-03-01T14:06:27;3.80;;;3.50;;
67839;SDS011;54636;51.684;5.142;2023-03-01T14:09:03;3.53;;;3.22;;
67839;SDS011;54636;51.684;5.142;2023-03-01T14:20:23;4.45;;;3.97;;
67839;SDS011;54636;51.684;5.142;2023-03-01T14:22:52;11.10;;;4.45;;
67839;SDS011;54636;51.684;5.142;2023-03-01T14:25:26;3.58;;;3.28;;
67839;SDS011;54636;51.684;5.142;2023-03-01T14:30:37;4.07;;;3.60;;
67839;SDS011;54636;51.684;5.142;2023-03-01T14:33:16;5.88;;;3.20;;
67839;SDS011;54636;51.684;5.142;2023-03-01T14:35:51;6.72;;;3.70;;
67839;SDS011;54636;51.684;5.142;2023-03-01T14:38:22;4.50;;;3.78;;
67839;SDS011;54636;51.684;5.142;2023-03-01T14:41:15;7.80;;;4.10;;
67839;SDS011;54636;51.684;5.142;2023-03-01T14:43:47;6.97;;;4.30;;
67839;SDS011;54636;51.684;5.142;2023-03-01T14:46:24;4.47;;;3.67;;
67839;SDS011;54636;51.684;5.142;2023-03-01T14:49:04;8.63;;;3.80;;
67839;SDS011;54636;51.684;5.142;2023-03-01T14:51:59;3.05;;;2.85;;
67839;SDS011;54636;51.684;5.142;2023-03-01T14:54:27;4.60;;;4.03;;
67839;SDS011;54636;51.684;5.142;2023-03-01T14:57:01;3.92;;;3.53;;
67839;SDS011;54636;51.684;5.142;2023-03-01T14:59:27;6.63;;;4.25;;
67839;SDS011;54636;51.684;5.142;2023-03-01T15:01:54;3.53;;;3.20;;
67839;SDS011;54636;51.684;5.142;2023-03-01T15:04:22;8.10;;;4.00;;
67839;SDS011;54636;51.684;5.142;2023-03-01T15:06:52;3.67;;;3.38;;
67839;SDS011;54636;51.684;5.142;2023-03-01T15:09:19;5.10;;;3.80;;
67839;SDS011;54636;51.684;5.142;2023-03-01T15:11:45;3.92;;;2.63;;
67839;SDS011;54636;51.684;5.142;2023-03-01T15:20:04;3.60;;;3.28;;
67839;SDS011;54636;51.684;5.142;2023-03-01T15:22:32;4.47;;;3.20;;
67839;SDS011;54636;51.684;5.142;2023-03-01T15:24:57;3.67;;;3.38;;
67839;SDS011;54636;51.684;5.142;2023-03-01T15:27:23;4.80;;;4.00;;
67839;SDS011;54636;51.684;5.142;2023-03-01T15:32:30;6.47;;;3.35;;
67839;SDS011;54636;51.684;5.142;2023-03-01T15:34:58;3.38;;;3.08;;
67839;SDS011;54636;51.684;5.142;2023-03-01T15:42:59;5.47;;;4.15;;
67839;SDS011;54636;51.684;5.142;2023-03-01T15:45:27;6.28;;;3.90;;
67839;SDS011;54636;51.684;5.142;2023-03-01T15:47:55;4.07;;;3.58;;
67839;SDS011;54636;51.684;5.142;2023-03-01T15:50:34;6.40;;;3.85;;
67839;SDS011;54636;51.684;5.142;2023-03-01T15:53:12;4.07;;;3.67;;
67839;SDS011;54636;51.684;5.142;2023-03-01T15:55:39;4.13;;;3.75;;
67839;SDS011;54636;51.684;5.142;2023-03-01T15:58:08;5.03;;;3.63;;
67839;SDS011;54636;51.684;5.142;2023-03-01T16:00:37;3.78;;;3.47;;
67839;SDS011;54636;51.684;5.142;2023-03-01T16:03:04;4.70;;;4.30;;
67839;SDS011;54636;51.684;5.142;2023-03-01T16:05:31;4.22;;;3.83;;
67839;SDS011;54636;51.684;5.142;2023-03-01T16:07:59;4.30;;;3.85;;
67839;SDS011;54636;51.684;5.142;2023-03-01T16:10:25;5.53;;;3.33;;
67839;SDS011;54636;51.684;5.142;2023-03-01T16:12:51;4.70;;;4.25;;
67839;SDS011;54636;51.684;5.142;2023-03-01T16:15:24;7.70;;;3.95;;
67839;SDS011;54636;51.684;5.142;2023-03-01T16:17:50;5.13;;;3.65;;
67839;SDS011;54636;51.684;5.142;2023-03-01T16:20:17;4.53;;;3.88;;
67839;SDS011;54636;51.684;5.142;2023-03-01T16:22:43;3.97;;;3.67;;
67839;SDS011;54636;51.684;5.142;2023-03-01T16:25:13;5.95;;;4.10;;
67839;SDS011;54636;51.684;5.142;2023-03-01T16:27:43;4.65;;;3.47;;
67839;SDS011;54636;51.684;5.142;2023-03-01T16:30:11;4.65;;;4.20;;
67839;SDS011;54636;51.684;5.142;2023-03-01T16:32:38;4.07;;;3.65;;
67839;SDS011;54636;51.684;5.142;2023-03-01T16:35:05;4.80;;;3.45;;
67839;SDS011;54636;51.684;5.142;2023-03-01T16:37:32;6.57;;;3.55;;
67839;SDS011;54636;51.684;5.142;2023-03-01T16:39:58;3.88;;;3.45;;
67839;SDS011;54636;51.684;5.142;2023-03-01T16:42:24;3.33;;;2.95;;
67839;SDS011;54636;51.684;5.142;2023-03-01T16:44:56;4.68;;;4.05;;
67839;SDS011;54636;51.684;5.142;2023-03-01T16:47:25;4.13;;;3.75;;
67839;SDS011;54636;51.684;5.142;2023-03-01T16:49:54;4.55;;;4.10;;
67839;SDS011;54636;51.684;5.142;2023-03-01T16:52:20;6.35;;;4.13;;
67839;SDS011;54636;51.684;5.142;2023-03-01T16:54:45;5.20;;;3.83;;
67839;SDS011;54636;51.684;5.142;2023-03-01T16:57:11;4.22;;;3.60;;
67839;SDS011;54636;51.684;5.142;2023-03-01T16:59:37;7.78;;;4.47;;
67839;SDS011;54636;51.684;5.142;2023-03-01T17:02:02;4.75;;;4.20;;